createdAt,value
2018-07-02T00:01:35.115Z,0.60
2018-07-02T00:04:03.755Z,0.70
2018-07-02T00:07:08.899Z,0.50
2018-07-02T00:09:37.554Z,0.80
2018-07-02T00:12:06.408Z,0.60
2018-07-02T00:14:35.263Z,0.87
2018-07-02T00:17:04.569Z,0.60
2018-07-02T00:19:33.211Z,0.60
2018-07-02T00:22:01.875Z,0.60
2018-07-02T00:24:30.854Z,0.70
2018-07-02T00:26:59.792Z,0.60
2018-07-02T00:29:28.836Z,0.70
2018-07-02T00:31:57.892Z,0.70
2018-07-02T00:34:26.699Z,0.80
2018-07-02T00:36:55.504Z,0.60
2018-07-02T00:39:24.516Z,0.77
2018-07-02T00:41:53.630Z,0.90
2018-07-02T00:44:22.535Z,0.80
2018-07-02T00:46:51.404Z,0.50
2018-07-02T00:49:20.480Z,0.70
2018-07-02T00:51:51.185Z,0.50
2018-07-02T00:54:20.047Z,0.50
2018-07-02T00:56:50.373Z,0.60
2018-07-02T00:59:18.959Z,0.60
2018-07-02T01:01:47.620Z,0.60
2018-07-02T01:04:16.251Z,0.70
2018-07-02T01:06:44.905Z,1.07
2018-07-02T01:09:13.567Z,0.60
2018-07-02T01:11:42.233Z,0.80
2018-07-02T01:14:11.837Z,0.70
2018-07-02T01:16:40.830Z,0.70
2018-07-02T01:19:09.751Z,0.60
2018-07-02T01:21:38.540Z,0.47
2018-07-02T01:24:07.456Z,0.60
2018-07-02T01:26:36.516Z,0.73
2018-07-02T01:29:05.481Z,0.83
2018-07-02T01:31:34.613Z,0.70
2018-07-02T01:34:03.485Z,0.77
2018-07-02T01:36:32.536Z,0.93
2018-07-02T01:39:01.510Z,0.67
2018-07-02T01:41:30.898Z,1.00
2018-07-02T01:44:00.205Z,1.00
2018-07-02T01:46:29.296Z,0.90
2018-07-02T01:48:58.188Z,1.20
2018-07-02T01:51:27.233Z,0.90
2018-07-02T01:53:56.305Z,0.60
2018-07-02T01:56:25.022Z,0.80
2018-07-02T01:58:53.909Z,0.97
2018-07-02T02:01:22.953Z,0.70
2018-07-02T02:03:52.347Z,0.73
2018-07-02T02:06:21.103Z,1.00
2018-07-02T02:08:50.038Z,0.93
2018-07-02T02:11:18.810Z,0.80
2018-07-02T02:13:47.913Z,0.60
2018-07-02T02:16:17.105Z,0.90
2018-07-02T02:18:46.012Z,0.70
2018-07-02T02:21:17.126Z,0.63
2018-07-02T02:23:45.889Z,0.70
2018-07-02T02:26:14.807Z,0.70
2018-07-02T02:28:43.879Z,0.77
2018-07-02T02:31:12.717Z,0.90
2018-07-02T02:33:41.889Z,0.90
2018-07-02T02:36:10.655Z,0.70
2018-07-02T02:38:39.601Z,0.70
2018-07-02T02:41:08.559Z,0.87
2018-07-02T02:43:37.791Z,0.70
2018-07-02T02:46:06.570Z,0.70
2018-07-02T02:48:38.566Z,0.80
2018-07-02T02:51:07.428Z,0.70
2018-07-02T02:53:36.347Z,0.70
2018-07-02T02:56:05.522Z,0.60
2018-07-02T02:58:35.410Z,0.60
2018-07-02T03:01:04.352Z,0.90
2018-07-02T03:03:33.320Z,0.90
2018-07-02T03:06:01.950Z,0.90
2018-07-02T03:08:30.602Z,0.80
2018-07-02T03:10:59.660Z,1.00
2018-07-02T03:13:28.604Z,0.67
2018-07-02T03:15:57.466Z,0.93
2018-07-02T03:18:26.545Z,0.97
2018-07-02T03:20:55.474Z,0.97
2018-07-02T03:23:24.493Z,0.63
2018-07-02T03:25:53.400Z,0.90
2018-07-02T03:28:22.289Z,0.60
2018-07-02T03:30:51.228Z,1.10
2018-07-02T03:33:20.228Z,0.87
2018-07-02T03:35:49.000Z,0.70
2018-07-02T03:38:17.928Z,0.70
2018-07-02T03:40:46.556Z,0.98
2018-07-02T03:43:15.335Z,0.90
2018-07-02T03:45:43.912Z,0.98
2018-07-02T03:48:12.600Z,0.83
2018-07-02T03:50:41.238Z,1.23
2018-07-02T03:53:09.906Z,0.80
2018-07-02T03:55:38.524Z,1.17
2018-07-02T03:58:07.191Z,1.00
2018-07-02T04:00:35.829Z,1.00
2018-07-02T04:03:04.561Z,0.83
2018-07-02T04:05:33.244Z,0.90
2018-07-02T04:08:01.955Z,0.93
2018-07-02T04:10:30.633Z,1.20
2018-07-02T04:12:59.383Z,0.90
2018-07-02T04:15:28.349Z,0.80
2018-07-02T04:17:57.118Z,0.80
2018-07-02T04:20:26.945Z,0.90
2018-07-02T04:22:55.840Z,0.80
2018-07-02T04:25:24.395Z,1.10
2018-07-02T04:27:53.015Z,1.13
2018-07-02T04:30:21.663Z,0.80
2018-07-02T04:32:50.292Z,1.03
2018-07-02T04:35:18.966Z,0.90
2018-07-02T04:37:47.588Z,1.10
2018-07-02T04:40:16.282Z,0.90
2018-07-02T04:42:44.929Z,1.10
2018-07-02T04:45:13.616Z,0.90
2018-07-02T04:47:42.237Z,0.70
2018-07-02T04:50:11.322Z,0.87
2018-07-02T04:52:40.265Z,1.20
2018-07-02T04:55:09.035Z,0.77
2018-07-02T04:57:38.116Z,1.03
2018-07-02T05:00:07.238Z,0.80
2018-07-02T05:02:36.035Z,1.10
2018-07-02T05:05:04.941Z,0.60
2018-07-02T05:07:34.114Z,1.00
2018-07-02T05:10:03.175Z,0.90
2018-07-02T05:12:32.220Z,1.00
2018-07-02T05:15:03.956Z,1.07
2018-07-02T05:17:32.954Z,1.20
2018-07-02T05:20:01.896Z,0.90
2018-07-02T05:22:30.868Z,1.10
2018-07-02T05:25:00.374Z,0.80
2018-07-02T05:27:29.134Z,0.70
2018-07-02T05:29:58.081Z,0.82
2018-07-02T05:32:26.986Z,0.77
2018-07-02T05:34:56.178Z,0.70
2018-07-02T05:37:25.022Z,0.70
2018-07-02T05:39:54.077Z,0.63
2018-07-02T05:42:24.232Z,0.70
2018-07-02T05:44:53.251Z,0.50
2018-07-02T05:47:22.278Z,0.77
2018-07-02T05:49:51.255Z,0.50
2018-07-02T05:52:20.121Z,0.40
2018-07-02T05:54:48.950Z,0.40
2018-07-02T05:57:17.576Z,0.60
2018-07-02T05:59:46.288Z,0.33
2018-07-02T06:02:15.052Z,0.40
2018-07-02T06:04:45.419Z,0.30
2018-07-02T06:07:14.431Z,0.33
2018-07-02T06:09:43.495Z,0.50
2018-07-02T06:12:12.580Z,0.30
2018-07-02T06:14:41.616Z,0.57
2018-07-02T06:17:10.991Z,0.50
2018-07-02T06:19:39.744Z,0.43
2018-07-02T06:22:08.530Z,0.30
2018-07-02T06:24:37.507Z,0.30
2018-07-02T06:27:06.362Z,0.40
2018-07-02T06:29:35.485Z,0.40
2018-07-02T06:32:04.235Z,0.55
2018-07-02T06:34:33.618Z,0.50
2018-07-02T06:37:02.784Z,0.40
2018-07-02T06:39:31.792Z,0.32
2018-07-02T06:42:01.237Z,0.55
2018-07-02T06:44:30.149Z,0.32
2018-07-02T06:46:59.059Z,0.50
2018-07-02T06:49:28.071Z,0.50
2018-07-02T06:51:56.688Z,0.40
2018-07-02T06:54:25.557Z,0.52
2018-07-02T06:56:54.507Z,0.68
2018-07-02T06:59:23.128Z,0.30
2018-07-02T07:01:51.794Z,0.35
2018-07-02T07:04:20.416Z,0.40
2018-07-02T07:06:49.155Z,0.40
2018-07-02T07:09:18.208Z,0.55
2018-07-02T07:11:46.881Z,0.62
2018-07-02T07:14:15.508Z,0.35
2018-07-02T07:16:44.212Z,0.52
2018-07-02T07:19:13.013Z,0.40
2018-07-02T07:21:41.694Z,0.43
2018-07-02T07:24:10.320Z,0.32
2018-07-02T07:26:39.087Z,0.45
2018-07-02T07:29:07.724Z,0.30
2018-07-02T07:31:36.527Z,0.73
2018-07-02T07:34:05.166Z,0.20
2018-07-02T07:36:33.855Z,0.40
2018-07-02T07:39:02.508Z,0.20
2018-07-02T07:41:31.514Z,0.50
2018-07-02T07:44:00.674Z,0.52
2018-07-02T07:46:29.607Z,0.40
2018-07-02T07:48:58.700Z,0.52
2018-07-02T07:51:28.138Z,0.40
2018-07-02T07:53:58.444Z,0.40
2018-07-02T07:56:29.276Z,0.40
2018-07-02T07:58:58.469Z,0.40
2018-07-02T08:01:28.083Z,0.30
2018-07-02T08:03:57.333Z,0.50
2018-07-02T08:06:26.616Z,0.37
2018-07-02T08:08:55.961Z,0.43
2018-07-02T08:11:24.801Z,0.30
2018-07-02T08:13:53.687Z,0.30
2018-07-02T08:16:22.788Z,0.35
2018-07-02T08:18:51.800Z,0.55
2018-07-02T08:21:20.818Z,0.70
2018-07-02T08:23:50.804Z,0.50
2018-07-02T08:26:20.233Z,0.40
2018-07-02T08:28:51.063Z,0.40
2018-07-02T08:31:21.486Z,0.50
2018-07-02T08:33:50.478Z,0.50
2018-07-02T08:36:19.542Z,0.50
2018-07-02T08:38:48.181Z,0.28
2018-07-02T08:41:26.305Z,0.43
2018-07-02T08:44:00.525Z,0.40
2018-07-02T08:46:30.451Z,0.55
2018-07-02T08:49:01.855Z,0.22
2018-07-02T08:51:31.477Z,0.40
2018-07-02T08:54:00.170Z,0.30
2018-07-02T08:56:28.849Z,0.40
2018-07-02T08:58:57.504Z,0.40
2018-07-02T09:01:26.484Z,0.52
2018-07-02T09:03:55.728Z,0.40
2018-07-02T09:06:24.734Z,0.30
2018-07-02T09:08:56.397Z,0.47
2018-07-02T09:11:25.064Z,0.45
2018-07-02T09:13:53.886Z,0.50
2018-07-02T09:16:22.914Z,0.30
2018-07-02T09:19:10.136Z,0.47
2018-07-02T09:21:40.094Z,0.40
2018-07-02T09:24:08.868Z,0.35
2018-07-02T09:26:37.735Z,0.30
2018-07-02T09:29:06.722Z,1.05
2018-07-02T09:31:35.589Z,0.40
2018-07-02T09:34:04.242Z,0.40
2018-07-02T09:36:38.949Z,0.55
2018-07-02T09:39:08.310Z,0.57
2018-07-02T09:41:43.366Z,0.30
2018-07-02T09:44:12.030Z,0.50
2018-07-02T09:46:43.544Z,0.30
2018-07-02T09:52:03.971Z,0.65
2018-07-02T09:54:33.985Z,0.50
2018-07-02T09:57:05.163Z,0.82
2018-07-02T09:59:34.083Z,0.50
2018-07-02T10:02:02.769Z,0.40
2018-07-02T10:04:32.230Z,0.73
2018-07-02T10:07:02.532Z,0.37
2018-07-02T10:09:49.183Z,0.60
2018-07-02T10:12:18.954Z,0.40
2018-07-02T10:14:47.596Z,0.30
2018-07-02T10:17:16.839Z,0.57
2018-07-02T10:19:45.629Z,0.20
2018-07-02T10:22:14.666Z,0.20
2018-07-02T10:24:43.324Z,0.60
2018-07-02T10:27:11.988Z,0.40
2018-07-02T10:29:40.653Z,0.30
2018-07-02T10:32:09.683Z,0.20
2018-07-02T10:34:38.618Z,0.45
2018-07-02T10:37:07.688Z,0.37
2018-07-02T10:39:36.361Z,0.40
2018-07-02T10:42:08.078Z,0.37
2018-07-02T10:44:37.049Z,0.40
2018-07-02T10:47:06.104Z,0.30
2018-07-02T10:49:36.378Z,0.40
2018-07-02T10:52:05.241Z,0.50
2018-07-02T10:54:34.339Z,0.50
2018-07-02T10:57:03.061Z,0.52
2018-07-02T10:59:31.795Z,0.50
2018-07-02T11:02:00.517Z,0.45
2018-07-02T11:04:29.130Z,0.30
2018-07-02T11:06:59.347Z,0.40
2018-07-02T11:09:28.163Z,0.32
2018-07-02T11:11:59.267Z,0.50
2018-07-02T11:14:25.497Z,0.30
2018-07-02T11:16:54.190Z,0.37
2018-07-02T11:19:22.873Z,0.57
2018-07-02T11:21:51.561Z,0.52
2018-07-02T11:24:20.224Z,0.25
2018-07-02T11:26:48.930Z,0.20
2018-07-02T11:29:17.558Z,0.45
2018-07-02T11:31:47.106Z,0.30
2018-07-02T11:34:15.688Z,0.35
2018-07-02T11:36:44.356Z,0.20
2018-07-02T11:39:13.005Z,0.30
2018-07-02T11:41:41.680Z,0.30
2018-07-02T11:44:10.345Z,0.40
2018-07-02T11:46:38.950Z,0.20
2018-07-02T11:49:07.624Z,0.30
2018-07-02T11:51:36.280Z,0.30
2018-07-02T11:54:04.980Z,0.37
2018-07-02T11:56:33.616Z,0.30
2018-07-02T11:59:02.301Z,0.35
2018-07-02T12:01:30.967Z,0.22
2018-07-02T12:03:59.758Z,0.30
2018-07-02T12:06:28.408Z,0.40
2018-07-02T12:08:57.070Z,0.40
2018-07-02T12:11:25.746Z,0.20
2018-07-02T12:13:54.425Z,0.35
2018-07-02T12:16:23.096Z,0.28
2018-07-02T12:18:51.805Z,0.40
2018-07-02T12:21:20.487Z,0.57
2018-07-02T12:23:49.157Z,0.30
2018-07-02T12:26:17.894Z,0.50
2018-07-02T12:28:47.621Z,0.55
2018-07-02T12:31:24.820Z,0.40
2018-07-02T12:33:54.803Z,0.30
2018-07-02T12:36:23.740Z,0.50
2018-07-02T12:38:52.615Z,0.50
2018-07-02T12:41:21.208Z,0.30
2018-07-02T12:43:49.890Z,0.40
2018-07-02T12:46:18.572Z,0.40
2018-07-02T12:48:47.257Z,0.30
2018-07-02T12:51:15.961Z,0.30
2018-07-02T12:53:44.601Z,0.47
2018-07-02T12:56:13.282Z,0.22
2018-07-02T12:58:42.001Z,0.40
2018-07-02T13:01:10.626Z,0.40
2018-07-02T13:03:39.313Z,0.40
2018-07-02T13:06:07.967Z,0.30
2018-07-02T13:08:37.043Z,0.40
2018-07-02T13:11:08.134Z,0.30
2018-07-02T13:13:36.821Z,0.75
2018-07-02T13:16:05.452Z,0.30
2018-07-02T13:18:34.133Z,0.43
2018-07-02T13:21:02.763Z,0.50
2018-07-02T13:23:31.437Z,0.20
2018-07-02T13:26:00.208Z,0.70
2018-07-02T13:28:29.311Z,0.35
2018-07-02T13:30:58.075Z,0.30
2018-07-02T13:33:26.785Z,0.40
2018-07-02T13:35:55.446Z,0.40
2018-07-02T13:38:24.125Z,0.68
2018-07-02T13:40:52.758Z,0.40
2018-07-02T13:43:21.702Z,0.30
2018-07-02T13:45:50.353Z,0.45
2018-07-02T13:48:19.136Z,0.43
2018-07-02T13:50:47.700Z,0.40
2018-07-02T13:53:16.498Z,0.50
2018-07-02T13:55:45.220Z,0.40
2018-07-02T13:58:13.899Z,0.28
2018-07-02T14:00:42.541Z,0.32
2018-07-02T14:03:11.417Z,0.32
2018-07-02T14:05:40.086Z,0.43
2018-07-02T14:08:08.809Z,0.57
2018-07-02T14:10:37.376Z,0.37
2018-07-02T14:13:07.171Z,0.55
2018-07-02T14:15:35.794Z,0.47
2018-07-02T14:18:04.518Z,0.43
2018-07-02T14:20:33.183Z,0.55
2018-07-02T14:23:01.930Z,0.40
2018-07-02T14:25:30.578Z,0.50
2018-07-02T14:27:59.276Z,0.45
2018-07-02T14:30:27.930Z,0.70
2018-07-02T14:32:56.629Z,0.30
2018-07-02T14:35:25.223Z,0.55
2018-07-02T14:37:53.898Z,0.43
2018-07-02T14:40:22.940Z,0.50
2018-07-02T14:42:52.025Z,0.50
2018-07-02T14:45:21.723Z,0.40
2018-07-02T14:47:53.776Z,0.62
2018-07-02T14:50:23.785Z,0.40
2018-07-02T14:52:52.622Z,0.40
2018-07-02T14:55:21.350Z,0.40
2018-07-02T14:57:51.018Z,0.50
2018-07-02T15:00:26.647Z,0.55
2018-07-02T15:05:44.115Z,0.60
2018-07-02T15:08:15.271Z,0.40
2018-07-02T15:10:43.087Z,0.70
2018-07-02T15:13:13.507Z,0.47
2018-07-02T15:15:43.057Z,0.47
2018-07-02T15:18:11.911Z,0.43
2018-07-02T15:23:37.211Z,0.68
2018-07-02T15:26:05.975Z,0.50
2018-07-02T15:28:34.720Z,0.40
2018-07-02T15:31:03.449Z,0.60
2018-07-02T15:33:32.139Z,0.70
2018-07-02T15:36:00.847Z,0.40
2018-07-02T15:38:31.785Z,0.35
2018-07-02T15:41:00.462Z,0.43
2018-07-02T15:43:29.128Z,0.45
2018-07-02T15:45:57.833Z,0.35
2018-07-02T15:48:27.418Z,0.40
2018-07-02T15:50:56.384Z,0.57
2018-07-02T15:53:25.139Z,0.50
2018-07-02T15:55:53.978Z,0.50
2018-07-02T15:58:22.633Z,0.40
2018-07-02T16:00:51.330Z,0.47
2018-07-02T16:03:20.026Z,0.60
2018-07-02T16:05:48.874Z,0.40
2018-07-02T16:08:17.852Z,0.80
2018-07-02T16:10:46.774Z,0.47
2018-07-02T16:13:15.325Z,0.60
2018-07-02T16:15:44.022Z,0.50
2018-07-02T16:18:12.688Z,0.50
2018-07-02T16:20:41.404Z,0.52
2018-07-02T16:23:10.122Z,0.60
2018-07-02T16:25:38.821Z,0.50
2018-07-02T16:28:10.368Z,0.45
2018-07-02T16:30:39.149Z,0.60
2018-07-02T16:33:07.957Z,0.40
2018-07-02T16:35:36.660Z,0.50
2018-07-02T16:38:05.364Z,0.50
2018-07-02T16:40:37.060Z,0.52
2018-07-02T16:45:54.602Z,0.62
2018-07-02T16:48:23.439Z,0.68
2018-07-02T16:50:52.427Z,0.60
2018-07-02T16:53:21.700Z,0.70
2018-07-02T16:55:50.774Z,0.68
2018-07-02T16:58:19.893Z,1.00
2018-07-02T17:00:48.904Z,0.60
2018-07-02T17:03:17.904Z,0.60
2018-07-02T17:05:47.338Z,0.88
2018-07-02T17:08:16.470Z,0.77
2018-07-02T17:10:45.490Z,0.60
2018-07-02T17:13:16.506Z,0.85
2018-07-02T17:15:45.221Z,0.70
2018-07-02T17:18:14.070Z,0.70
2018-07-02T17:20:43.277Z,0.90
2018-07-02T17:23:12.612Z,0.85
2018-07-02T17:25:41.785Z,0.80
2018-07-02T17:28:10.847Z,0.70
2018-07-02T17:30:40.045Z,1.20
2018-07-02T17:33:08.876Z,0.60
2018-07-02T17:35:38.214Z,0.70
2018-07-02T17:38:07.236Z,0.77
2018-07-02T17:40:36.152Z,0.65
2018-07-02T17:43:04.996Z,0.90
2018-07-02T17:45:34.037Z,0.60
2018-07-02T17:48:02.904Z,0.77
2018-07-02T17:50:32.069Z,0.70
2018-07-02T17:53:00.878Z,0.80
2018-07-02T17:55:29.828Z,0.70
2018-07-02T17:57:58.760Z,0.62
2018-07-02T18:00:27.814Z,0.60
2018-07-02T18:02:56.676Z,0.77
2018-07-02T18:05:25.765Z,0.80
2018-07-02T18:07:54.767Z,0.62
2018-07-02T18:10:24.543Z,0.70
2018-07-02T18:12:53.580Z,0.65
2018-07-02T18:15:28.358Z,0.90
2018-07-02T18:18:03.324Z,1.02
2018-07-02T18:20:38.244Z,1.10
2018-07-02T18:23:06.912Z,1.23
2018-07-02T18:25:42.234Z,0.90
2018-07-02T18:28:10.978Z,1.42
2018-07-02T18:30:39.893Z,1.80
2018-07-02T18:33:10.937Z,1.52
2018-07-02T18:35:40.445Z,1.30
2018-07-02T18:38:11.035Z,1.60
2018-07-02T18:40:49.785Z,0.80
2018-07-02T18:43:19.130Z,1.50
2018-07-02T18:45:48.111Z,1.87
2018-07-02T18:48:17.057Z,1.83
2018-07-02T18:50:46.034Z,2.10
2018-07-02T18:53:14.971Z,2.28
2018-07-02T18:55:44.021Z,1.98
2018-07-02T18:58:12.956Z,1.62
2018-07-02T19:00:42.199Z,0.82
2018-07-02T19:03:11.004Z,1.12
2018-07-02T19:05:39.675Z,1.23
2018-07-02T19:08:08.315Z,1.40
2018-07-02T19:10:37.092Z,0.62
2018-07-02T19:13:11.110Z,0.82
2018-07-02T19:15:48.111Z,1.15
2018-07-02T19:18:22.713Z,1.20
2018-07-02T19:20:57.328Z,1.23
2018-07-02T19:23:29.615Z,1.60
2018-07-02T19:26:05.301Z,2.03
2018-07-02T19:28:39.949Z,2.43
2018-07-02T19:31:08.642Z,1.75
2018-07-02T19:33:37.303Z,1.67
2018-07-02T19:36:05.998Z,2.33
2018-07-02T19:38:34.678Z,1.92
2018-07-02T19:41:03.393Z,2.35
2018-07-02T19:43:32.236Z,1.83
2018-07-02T19:46:00.926Z,1.95
2018-07-02T19:48:42.822Z,2.60
2018-07-02T19:51:13.442Z,2.22
2018-07-02T19:53:42.622Z,2.10
2018-07-02T19:56:13.065Z,1.73
2018-07-02T19:58:45.754Z,1.80
2018-07-02T20:01:14.952Z,2.00
2018-07-02T20:03:46.774Z,3.12
2018-07-02T20:06:17.904Z,2.05
2018-07-02T20:08:48.299Z,2.50
2018-07-02T20:11:17.359Z,1.60
2018-07-02T20:13:47.431Z,2.03
2018-07-02T20:16:16.619Z,2.60
2018-07-02T20:18:45.885Z,2.10
2018-07-02T20:21:14.953Z,1.58
2018-07-02T20:23:43.880Z,1.73
2018-07-02T20:26:13.123Z,1.73
2018-07-02T20:28:43.681Z,1.70
2018-07-02T20:31:12.913Z,1.87
2018-07-02T20:33:41.844Z,1.15
2018-07-02T20:36:11.311Z,1.40
2018-07-02T20:38:40.274Z,1.20
2018-07-02T20:41:09.504Z,1.20
2018-07-02T20:43:38.480Z,1.48
2018-07-02T20:46:07.663Z,1.35
2018-07-02T20:48:36.897Z,1.80
2018-07-02T20:51:05.948Z,1.30
2018-07-02T20:54:26.603Z,1.42
2018-07-02T21:00:41.130Z,1.67
2018-07-02T21:06:57.374Z,1.30
2018-07-02T21:09:26.309Z,1.15
2018-07-02T21:11:54.971Z,1.30
2018-07-02T21:14:23.702Z,1.30
2018-07-02T21:16:53.483Z,1.10
2018-07-02T21:19:22.234Z,0.98
2018-07-02T21:21:50.807Z,0.85
2018-07-02T21:24:19.451Z,1.15
2018-07-02T21:26:48.131Z,1.30
2018-07-02T21:29:16.763Z,1.35
2018-07-02T21:31:47.094Z,1.17
2018-07-02T21:34:16.109Z,1.17
2018-07-02T21:36:44.801Z,1.30
2018-07-02T21:39:13.449Z,1.52
2018-07-02T21:41:42.831Z,1.62
2018-07-02T21:44:11.499Z,1.67
2018-07-02T21:46:42.884Z,1.98
2018-07-02T21:49:11.628Z,1.73
2018-07-02T21:51:40.900Z,2.33
2018-07-02T21:54:09.709Z,2.10
2018-07-02T21:56:38.755Z,1.80
2018-07-02T21:59:07.864Z,1.98
2018-07-02T22:01:36.493Z,1.67
2018-07-02T22:04:05.336Z,1.75
2018-07-02T22:06:34.033Z,1.52
2018-07-02T22:09:02.709Z,1.20
2018-07-02T22:11:31.384Z,1.40
2018-07-02T22:14:00.045Z,1.30
2018-07-02T22:16:29.539Z,1.48
2018-07-02T22:18:58.210Z,1.40
2018-07-02T22:21:26.913Z,0.98
2018-07-02T22:23:58.313Z,1.12
2018-07-02T22:26:27.270Z,1.20
2018-07-02T22:28:55.959Z,1.10
2018-07-02T22:31:24.595Z,1.08
2018-07-02T22:33:53.270Z,1.35
2018-07-02T22:36:21.899Z,1.00
2018-07-02T22:38:50.584Z,0.90
2018-07-02T22:41:19.254Z,0.98
2018-07-02T22:43:47.939Z,0.60
2018-07-02T22:46:16.542Z,0.80
2018-07-02T22:48:45.220Z,1.10
2018-07-02T22:51:13.927Z,0.93
2018-07-02T22:53:51.980Z,1.00
2018-07-02T22:56:21.553Z,1.37
2018-07-02T22:58:50.091Z,0.93
2018-07-02T23:01:18.870Z,1.00
2018-07-02T23:03:47.791Z,1.20
2018-07-02T23:06:18.104Z,0.77
2018-07-02T23:08:47.083Z,1.37
2018-07-02T23:11:15.900Z,5.28
2018-07-02T23:13:45.105Z,7.03
2018-07-02T23:16:15.113Z,5.28
2018-07-02T23:18:46.845Z,5.10
2018-07-02T23:21:15.375Z,4.07
2018-07-02T23:23:44.696Z,4.70
2018-07-02T23:26:13.741Z,4.10
2018-07-02T23:28:42.811Z,4.25
2018-07-02T23:31:12.234Z,3.50
2018-07-02T23:33:41.394Z,3.03
2018-07-02T23:36:10.377Z,3.40
2018-07-02T23:38:42.943Z,2.90
2018-07-02T23:41:13.107Z,3.40
2018-07-02T23:43:42.333Z,3.80
2018-07-02T23:46:12.674Z,4.28
2018-07-02T23:48:41.627Z,4.03
2018-07-02T23:51:10.687Z,5.07
2018-07-02T23:53:39.572Z,5.13
2018-07-02T23:56:08.505Z,4.93
2018-07-02T23:58:38.013Z,5.43
